Time;durP1;ratioP1;P1;durP2;ratioP2;P2;SDS_P1;SDS_P2;PMS_P1;PMS_P2;Temp;Humidity;BMP_temperature;BMP_pressure;BME280_temperature;BME280_humidity;BME280_pressure;Samples;Min_cycle;Max_cycle;Signal;HPM_P1;HPM_P2
2021/10/29 00:00:52;;;;;;;12.20;10.65;;;;;;;11.57;74.80;100646.77;1759810;80;20954;-56
2021/10/29 00:03:18;;;;;;;14.15;11.05;;;;;;;11.57;74.93;100646.77;1759833;80;21041;-56
2021/10/29 00:05:44;;;;;;;15.65;11.15;;;;;;;11.58;75.00;100646.30;1761316;80;21037;-56
2021/10/29 00:08:11;;;;;;;13.55;9.98;;;;;;;11.57;75.05;100649.97;1762157;80;21097;-55
2021/10/29 00:10:37;;;;;;;11.95;9.33;;;;;;;11.56;74.99;100647.73;1769299;80;21046;-57
2021/10/29 00:13:04;;;;;;;10.95;9.80;;;;;;;11.54;75.03;100647.37;1771141;80;21108;-57
2021/10/29 00:15:32;;;;;;;12.05;9.48;;;;;;;11.52;75.03;100646.08;1767849;80;21460;-57
2021/10/29 00:17:58;;;;;;;13.75;9.88;;;;;;;11.51;75.05;100637.57;1766537;80;21533;-56
2021/10/29 00:20:24;;;;;;;10.10;8.58;;;;;;;11.52;75.08;100645.20;1767304;80;21116;-57
2021/10/29 00:22:51;;;;;;;15.78;10.48;;;;;;;11.51;75.13;100642.97;1768794;80;21009;-56
2021/10/29 00:25:17;;;;;;;10.85;9.15;;;;;;;11.52;75.15;100638.45;1766093;80;21061;-56
2021/10/29 00:27:44;;;;;;;11.95;9.83;;;;;;;11.52;75.25;100639.34;1768686;80;21046;-57
2021/10/29 00:30:11;;;;;;;14.18;10.43;;;;;;;11.55;75.30;100638.34;1767827;80;21041;-56
2021/10/29 00:32:37;;;;;;;12.95;10.68;;;;;;;11.54;75.36;100640.16;1766276;79;22599;-56
2021/10/29 00:35:05;;;;;;;15.88;10.90;;;;;;;11.55;75.39;100642.39;1766465;80;21212;-57
2021/10/29 00:37:37;;;;;;;17.05;12.25;;;;;;;11.55;75.42;100637.88;1774399;80;20859;-57
2021/10/29 00:39:59;;;;;;;15.03;12.63;;;;;;;11.55;75.44;100638.34;1767725;80;21069;-56
2021/10/29 00:42:25;;;;;;;12.45;10.55;;;;;;;11.54;75.45;100640.63;1767278;80;21563;-56
2021/10/29 00:44:52;;;;;;;14.70;10.43;;;;;;;11.54;75.46;100640.16;1760918;80;21517;-56
2021/10/29 00:47:18;;;;;;;12.65;9.38;;;;;;;11.53;75.45;100644.27;1768156;80;21726;-56
2021/10/29 00:49:44;;;;;;;15.13;11.48;;;;;;;11.54;75.46;100643.33;1769917;80;21123;-56
2021/10/29 00:52:10;;;;;;;11.28;9.20;;;;;;;11.53;75.49;100645.61;1768159;80;21587;-58
2021/10/29 00:54:38;;;;;;;13.00;9.90;;;;;;;11.55;75.45;100646.44;1764098;80;21060;-56
2021/10/29 00:57:05;;;;;;;14.50;10.32;;;;;;;11.54;75.44;100650.07;1766719;80;21103;-57
2021/10/29 00:59:31;;;;;;;13.08;10.30;;;;;;;11.54;75.50;100651.41;1762864;80;21050;-57
2021/10/29 01:01:58;;;;;;;17.37;12.30;;;;;;;11.53;75.48;100653.70;1766534;80;21089;-57
2021/10/29 01:04:25;;;;;;;16.37;12.05;;;;;;;11.52;75.50;100643.84;1764936;80;21042;-56
2021/10/29 01:06:52;;;;;;;16.48;12.20;;;;;;;11.51;75.52;100647.48;1766978;80;20942;-57
2021/10/29 01:09:19;;;;;;;10.38;9.28;;;;;;;11.49;75.54;100645.30;1772153;80;21100;-58
2021/10/29 01:11:45;;;;;;;13.65;10.32;;;;;;;11.49;75.56;100645.30;1766409;80;21147;-56
2021/10/29 01:14:12;;;;;;;15.28;10.23;;;;;;;11.49;75.58;100642.60;1770185;80;21041;-56
2021/10/29 01:16:39;;;;;;;12.28;10.18;;;;;;;11.49;75.54;100642.14;1766170;80;21109;-56
2021/10/29 01:19:06;;;;;;;13.93;10.75;;;;;;;11.50;75.51;100640.32;1767425;80;21064;-57
2021/10/29 01:21:32;;;;;;;12.75;10.00;;;;;;;11.50;75.51;100645.25;1769931;80;21142;-56
2021/10/29 01:23:59;;;;;;;18.12;10.43;;;;;;;11.50;75.50;100641.20;1766491;80;21093;-57
2021/10/29 01:26:25;;;;;;;12.65;11.25;;;;;;;11.51;75.50;100642.97;1767685;80;21094;-56
2021/10/29 01:28:51;;;;;;;15.65;13.50;;;;;;;11.51;75.48;100646.13;1769286;80;21402;-57
2021/10/29 01:31:18;;;;;;;18.23;12.50;;;;;;;11.49;75.47;100646.18;1767620;79;21587;-55
2021/10/29 01:33:44;;;;;;;15.48;12.35;;;;;;;11.49;75.45;100647.99;1769469;79;21092;-57
2021/10/29 01:36:11;;;;;;;15.53;10.90;;;;;;;11.47;75.46;100641.81;1768039;80;21143;-57
2021/10/29 01:38:42;;;;;;;14.10;11.22;;;;;;;11.46;75.46;100649.02;1769409;80;21665;-57
2021/10/29 01:41:09;;;;;;;14.78;12.18;;;;;;;11.45;75.42;100645.02;1769239;80;21013;-56
2021/10/29 01:43:40;;;;;;;17.05;12.73;;;;;;;11.45;75.44;100645.02;1762712;79;21533;-56
2021/10/29 01:46:07;;;;;;;14.78;11.20;;;;;;;11.44;75.41;100641.91;1770386;80;21102;-56
2021/10/29 01:48:36;;;;;;;15.85;11.03;;;;;;;11.44;75.45;100650.00;1764044;80;21053;-56
2021/10/29 01:51:02;;;;;;;16.32;12.70;;;;;;;11.43;75.50;100645.54;1738387;80;21464;-57
2021/10/29 01:53:28;;;;;;;15.68;12.68;;;;;;;11.42;75.51;100646.00;1764615;80;21067;-58
2021/10/29 01:55:55;;;;;;;14.90;12.33;;;;;;;11.40;75.54;100651.91;1768654;80;22583;-58
2021/10/29 01:58:21;;;;;;;17.05;14.28;;;;;;;11.38;75.50;100646.61;1764934;80;21132;-59
2021/10/29 02:00:48;;;;;;;17.40;13.38;;;;;;;11.35;75.47;100657.95;1764582;80;21057;-58
2021/10/29 02:03:14;;;;;;;17.87;12.53;;;;;;;11.32;75.56;100655.37;1731485;80;21097;-58
2021/10/29 02:05:42;;;;;;;15.00;13.50;;;;;;;11.28;75.61;100655.97;1706267;83;21113;-58
2021/10/29 02:08:08;;;;;;;19.67;12.43;;;;;;;11.25;75.62;100656.53;1706898;82;22314;-58
2021/10/29 02:10:35;;;;;;;14.33;10.93;;;;;;;11.24;75.70;100654.77;1687012;82;21510;-58
2021/10/29 02:13:01;;;;;;;14.38;11.38;;;;;;;11.23;75.80;100651.66;1689096;83;21424;-58
2021/10/29 02:15:28;;;;;;;18.45;12.35;;;;;;;11.22;75.88;100644.08;1687132;83;21640;-58
2021/10/29 02:17:54;;;;;;;16.48;12.15;;;;;;;11.23;75.97;100649.84;1687923;83;21464;-58
2021/10/29 02:20:21;;;;;;;16.77;11.53;;;;;;;11.23;76.00;100648.50;1704514;82;21577;-58
2021/10/29 02:22:47;;;;;;;16.30;14.30;;;;;;;11.23;76.02;100654.36;1685614;82;21154;-58
2021/10/29 02:25:13;;;;;;;18.65;13.20;;;;;;;11.22;75.97;100658.89;1698505;82;21046;-58
2021/10/29 02:27:40;;;;;;;16.95;12.63;;;;;;;11.22;75.97;100661.59;1704580;82;21038;-58
2021/10/29 02:30:08;;;;;;;17.20;12.65;;;;;;;11.20;75.93;100662.11;1703156;82;21040;-58
2021/10/29 02:32:35;;;;;;;15.18;12.20;;;;;;;11.20;75.92;100666.61;1704492;82;21020;-58
2021/10/29 02:35:02;;;;;;;16.40;11.78;;;;;;;11.19;75.96;100667.08;1702970;82;21717;-59
2021/10/29 02:37:28;;;;;;;16.62;12.47;;;;;;;11.18;75.97;100668.48;1699180;82;20923;-59
2021/10/29 02:39:56;;;;;;;15.15;10.68;;;;;;;11.17;76.00;100670.29;1708522;82;21004;-58
2021/10/29 02:42:22;;;;;;;15.05;11.45;;;;;;;11.17;76.05;100668.06;1694346;82;21514;-58
2021/10/29 02:44:48;;;;;;;14.45;11.25;;;;;;;11.17;76.07;100668.94;1689880;82;21359;-58
2021/10/29 02:47:15;;;;;;;18.42;12.45;;;;;;;11.18;76.08;100664.44;1694006;82;21411;-58
2021/10/29 02:49:41;;;;;;;18.32;12.50;;;;;;;11.18;76.06;100663.09;1739223;80;21417;-58
2021/10/29 02:52:08;;;;;;;16.20;13.22;;;;;;;11.16;76.05;100669.88;1745304;80;21480;-58
2021/10/29 02:54:34;;;;;;;18.02;13.58;;;;;;;11.15;76.05;100668.58;1742538;80;21058;-58
2021/10/29 02:57:01;;;;;;;17.15;12.73;;;;;;;11.12;76.06;100665.55;1744106;80;21327;-58
2021/10/29 02:59:27;;;;;;;16.25;12.23;;;;;;;11.11;76.09;100673.68;1745996;80;21069;-58
2021/10/29 03:01:53;;;;;;;16.37;12.00;;;;;;;11.09;76.06;100676.42;1745649;80;21001;-58
2021/10/29 03:04:20;;;;;;;16.00;11.90;;;;;;;11.08;76.10;100668.39;1746817;80;20875;-58
2021/10/29 03:06:47;;;;;;;16.60;12.20;;;;;;;11.07;76.10;100679.63;1746084;80;20911;-58
2021/10/29 03:09:13;;;;;;;15.10;11.33;;;;;;;11.07;76.07;100682.33;1752168;80;20911;-58
2021/10/29 03:11:40;;;;;;;17.52;12.23;;;;;;;11.05;76.01;100680.17;1764279;80;21897;-58
2021/10/29 03:14:06;;;;;;;18.75;13.03;;;;;;;11.02;76.10;100680.27;1763478;80;21342;-58
2021/10/29 03:16:34;;;;;;;14.05;12.20;;;;;;;11.02;76.18;100691.05;1763382;80;21473;-58
2021/10/29 03:19:00;;;;;;;14.68;13.15;;;;;;;11.01;76.22;100691.98;1761629;80;21438;-58
2021/10/29 03:21:27;;;;;;;16.50;13.68;;;;;;;10.99;76.21;100688.45;1761563;80;21105;-58
2021/10/29 03:23:54;;;;;;;21.12;14.35;;;;;;;10.96;76.26;100685.42;1761373;80;21952;-58
2021/10/29 03:26:21;;;;;;;21.87;14.33;;;;;;;10.94;76.21;100684.59;1761125;80;21093;-58
2021/10/29 03:28:47;;;;;;;17.62;12.68;;;;;;;10.92;76.25;100688.27;1758988;80;21066;-58
2021/10/29 03:31:13;;;;;;;22.73;12.47;;;;;;;10.92;76.28;100685.56;1761576;79;21042;-59
2021/10/29 03:33:41;;;;;;;15.00;12.37;;;;;;;10.89;76.32;100681.63;1760600;80;22182;-58
2021/10/29 03:36:07;;;;;;;19.45;12.10;;;;;;;10.87;76.33;100687.09;1756442;80;21062;-58
2021/10/29 03:41:16;;;;;;;17.12;11.93;;;;;;;10.84;76.26;100684.48;1704268;82;21073;-58
2021/10/29 03:43:49;;;;;;;18.95;12.90;;;;;;;10.83;76.33;100689.92;1759915;80;21062;-59
2021/10/29 03:46:17;;;;;;;25.57;14.20;;;;;;;10.79;76.21;100687.82;1757562;80;21032;-59
2021/10/29 03:48:58;;;;;;;21.02;14.10;;;;;;;10.75;75.94;100683.45;1759213;80;21489;-58
2021/10/29 03:51:20;;;;;;;17.67;13.45;;;;;;;10.69;75.95;100685.48;1757132;80;21078;-58
2021/10/29 03:53:45;;;;;;;23.47;13.70;;;;;;;10.63;76.06;100690.63;1754054;80;21022;-58
2021/10/29 03:56:16;;;;;;;12.82;10.93;;;;;;;10.58;76.14;100692.56;1761242;80;21017;-58
2021/10/29 03:58:35;;;;;;;14.80;11.00;;;;;;;10.54;76.11;100689.12;1760276;79;21290;-59
2021/10/29 04:01:02;;;;;;;16.42;10.80;;;;;;;10.49;76.07;100691.06;1763288;80;21874;-58
2021/10/29 04:03:28;;;;;;;12.68;10.05;;;;;;;10.45;76.06;100693.45;1760308;80;21080;-58
2021/10/29 04:05:54;;;;;;;12.33;10.63;;;;;;;10.41;75.92;100693.12;1763670;80;21338;-58
2021/10/29 04:08:21;;;;;;;16.73;11.43;;;;;;;10.35;75.84;100700.06;1761525;80;21074;-58
2021/10/29 04:10:49;;;;;;;14.93;11.85;;;;;;;10.31;75.89;100696.16;1763876;80;21832;-58
2021/10/29 04:13:15;;;;;;;17.00;12.50;;;;;;;10.26;75.87;100695.44;1768888;80;21181;-58
2021/10/29 04:15:42;;;;;;;15.35;12.50;;;;;;;10.19;75.55;100697.45;1767968;80;21061;-58
2021/10/29 04:18:09;;;;;;;15.00;13.18;;;;;;;10.11;75.28;100707.08;1765658;80;21124;-58
2021/10/29 04:20:36;;;;;;;15.03;11.35;;;;;;;10.02;75.24;100699.75;1765233;80;21065;-58
2021/10/29 04:23:03;;;;;;;13.75;10.20;;;;;;;9.94;75.32;100704.02;1772130;80;20911;-58
2021/10/29 04:25:29;;;;;;;13.25;9.98;;;;;;;9.88;75.32;100705.53;1771175;80;21141;-58
2021/10/29 04:27:59;;;;;;;19.73;9.83;;;;;;;9.82;75.17;100712.45;1770464;80;21037;-58
2021/10/29 04:30:26;;;;;;;9.45;8.53;;;;;;;9.76;75.10;100710.84;1766717;80;21637;-58
2021/10/29 04:32:52;;;;;;;9.08;8.20;;;;;;;9.70;75.11;100715.02;1767028;79;21054;-58
2021/10/29 04:35:18;;;;;;;22.60;9.73;;;;;;;9.65;75.04;100718.33;1769371;80;22141;-58
2021/10/29 04:37:45;;;;;;;11.65;9.68;;;;;;;9.61;75.01;100725.19;1767355;80;21073;-58
2021/10/29 04:40:11;;;;;;;12.03;10.10;;;;;;;9.55;74.99;100724.89;1767454;80;21101;-58
2021/10/29 04:42:38;;;;;;;16.42;10.95;;;;;;;9.48;74.87;100722.84;1766276;80;21069;-58
2021/10/29 04:45:05;;;;;;;15.53;11.38;;;;;;;9.42;74.97;100728.41;1766908;80;21073;-58
2021/10/29 04:47:32;;;;;;;13.50;11.83;;;;;;;9.38;75.08;100727.17;1767443;80;21049;-58
2021/10/29 04:49:59;;;;;;;17.15;12.58;;;;;;;9.32;74.92;100729.58;1763741;80;21157;-58
2021/10/29 04:52:25;;;;;;;11.60;8.58;;;;;;;9.25;74.84;100737.84;1769429;80;21281;-58
2021/10/29 04:54:51;;;;;;;14.50;9.73;;;;;;;9.20;74.73;100741.10;1766977;80;22346;-58
2021/10/29 04:57:17;;;;;;;10.38;8.58;;;;;;;9.17;74.84;100747.92;1764252;80;21160;-58
2021/10/29 04:59:45;;;;;;;10.15;8.03;;;;;;;9.14;74.91;100745.30;1763417;80;21120;-58
2021/10/29 05:02:12;;;;;;;11.93;8.45;;;;;;;9.10;74.88;100750.75;1769877;80;21431;-59
2021/10/29 05:04:40;;;;;;;13.62;9.18;;;;;;;9.09;74.89;100752.16;1769564;80;21257;-58
2021/10/29 05:07:07;;;;;;;16.35;10.80;;;;;;;9.04;74.79;100753.60;1766601;80;21085;-58
2021/10/29 05:09:33;;;;;;;11.45;10.32;;;;;;;9.01;74.89;100755.05;1765532;80;21082;-58
2021/10/29 05:11:59;;;;;;;18.42;10.85;;;;;;;9.01;75.01;100757.73;1762818;80;21512;-57
2021/10/29 05:17:07;;;;;;;13.23;10.40;;;;;;;9.10;75.25;100753.92;1866599;75;22706;-58
2021/10/29 05:19:34;;;;;;;15.90;9.48;;;;;;;9.09;75.50;100765.13;1836990;77;21096;-58
2021/10/29 05:22:00;;;;;;;10.48;8.05;;;;;;;9.12;75.69;100765.48;1833235;77;21151;-58
2021/10/29 05:24:27;;;;;;;12.85;8.00;;;;;;;9.16;75.95;100764.50;1838452;77;21439;-58
2021/10/29 05:26:53;;;;;;;12.65;9.38;;;;;;;9.23;76.24;100762.52;1836491;77;20949;-58
2021/10/29 05:29:19;;;;;;;12.18;8.70;;;;;;;9.28;76.52;100765.95;1835009;77;21625;-58
2021/10/29 05:31:46;;;;;;;14.07;9.13;;;;;;;9.35;76.81;100768.92;1827350;77;22454;-58
2021/10/29 05:34:12;;;;;;;14.50;9.28;;;;;;;9.41;77.07;100767.41;1804613;78;21043;-58
2021/10/29 05:36:38;;;;;;;10.90;9.25;;;;;;;9.47;77.44;100773.48;1807162;78;21015;-58
2021/10/29 05:39:05;;;;;;;12.07;10.05;;;;;;;9.56;77.60;100772.80;1808310;78;21067;-58
2021/10/29 05:41:31;;;;;;;13.00;9.73;;;;;;;9.63;77.67;100773.93;1810441;78;20893;-58
2021/10/29 05:44:00;;;;;;;16.70;13.53;;;;;;;9.67;77.68;100777.43;1779423;79;20882;-58
2021/10/29 05:46:29;;;;;;;12.20;9.98;;;;;;;9.73;77.69;100774.56;1777729;78;21055;-58
2021/10/29 05:48:55;;;;;;;16.12;13.08;;;;;;;9.78;77.72;100775.33;1755575;80;20949;-58
2021/10/29 05:51:22;;;;;;;14.73;10.58;;;;;;;9.84;77.83;100780.52;1778438;78;20949;-58
2021/10/29 05:56:15;;;;;;;16.40;12.18;;;;;;;9.94;77.96;100779.80;1779148;80;20972;-58
2021/10/29 05:58:41;;;;;;;15.45;12.63;;;;;;;10.00;78.17;100777.80;1778130;78;21115;-59
2021/10/29 06:01:08;;;;;;;16.15;13.53;;;;;;;10.09;78.39;100765.87;1747641;81;20898;-59
2021/10/29 06:03:34;;;;;;;19.92;14.33;;;;;;;10.20;78.42;100769.17;1754191;80;20968;-59
2021/10/29 06:06:01;;;;;;;21.10;15.60;;;;;;;10.31;78.45;100776.42;1777479;78;20923;-59
2021/10/29 06:08:27;;;;;;;23.50;18.48;;;;;;;10.44;78.54;100779.17;1755423;80;20973;-59
2021/10/29 06:10:53;;;;;;;24.90;18.25;;;;;;;10.56;78.58;100780.57;1775235;78;21078;-58
2021/10/29 06:13:22;;;;;;;21.50;17.10;;;;;;;10.69;78.54;100783.77;1743280;80;20976;-59
2021/10/29 06:15:48;;;;;;;26.68;17.20;;;;;;;10.80;78.54;100782.96;1764677;79;20906;-58
2021/10/29 06:18:24;;;;;;;26.25;18.27;;;;;;;10.91;78.50;100779.42;1732913;81;20893;-59
2021/10/29 06:20:51;;;;;;;21.85;16.55;;;;;;;11.02;78.50;100779.95;1730720;81;21457;-58
2021/10/29 06:23:20;;;;;;;22.58;17.40;;;;;;;11.14;78.41;100780.02;1729696;81;21125;-58
2021/10/29 06:25:47;;;;;;;21.37;15.88;;;;;;;11.26;78.34;100780.92;1729508;80;21142;-58
2021/10/29 06:28:20;;;;;;;19.67;15.48;;;;;;;11.39;78.23;100786.32;1730522;81;20963;-59
2021/10/29 06:30:44;;;;;;;23.60;16.65;;;;;;;11.55;77.97;100792.92;1733847;81;21532;-58
2021/10/29 06:33:12;;;;;;;23.55;17.50;;;;;;;11.66;77.63;100792.52;1727783;81;21089;-58
2021/10/29 06:35:42;;;;;;;23.07;18.07;;;;;;;11.75;77.48;100793.56;1728822;81;21119;-58
2021/10/29 06:38:09;;;;;;;19.75;16.40;;;;;;;11.85;77.25;100784.67;1725572;81;21092;-58
2021/10/29 06:40:44;;;;;;;22.93;16.32;;;;;;;11.95;77.08;100791.48;1727703;81;20986;-58
2021/10/29 06:43:11;;;;;;;17.48;14.25;;;;;;;12.05;76.98;100792.91;1725575;81;21135;-58
2021/10/29 06:46:07;;;;;;;18.48;13.35;;;;;;;12.15;76.85;100794.80;1728288;80;21469;-58
2021/10/29 06:48:24;;;;;;;14.78;13.18;;;;;;;12.24;76.79;100792.63;1717674;81;21222;-56
2021/10/29 06:59:17;;;;;;;22.48;13.65;;;;;;;12.62;75.95;100792.45;1694102;81;21754;-59
2021/10/29 07:01:53;;;;;;;13.58;12.28;;;;;;;12.71;75.65;100799.30;1729861;80;21130;-58
2021/10/29 07:42:08;;;;;;;6.30;4.30;;;;;;;13.75;72.86;100815.61;1746351;81;21273;-57
2021/10/29 07:44:38;;;;;;;4.17;3.85;;;;;;;13.81;72.56;100813.09;1747450;80;21081;-58
2021/10/29 07:47:05;;;;;;;4.85;4.12;;;;;;;13.87;72.35;100815.52;1749002;81;21089;-58
2021/10/29 07:49:31;;;;;;;6.20;5.58;;;;;;;13.93;71.97;100812.56;1749298;79;21045;-57
2021/10/29 07:51:57;;;;;;;7.05;5.47;;;;;;;13.98;71.59;100814.56;1747943;81;21084;-58
2021/10/29 07:54:25;;;;;;;10.08;6.15;;;;;;;14.03;71.35;100817.08;1746522;79;21112;-58
2021/10/29 07:56:51;;;;;;;4.95;4.45;;;;;;;14.06;71.11;100820.52;1749031;80;21551;-57
2021/10/29 07:59:20;;;;;;;6.67;5.30;;;;;;;14.09;71.08;100817.67;1745893;79;21049;-58
2021/10/29 08:01:48;;;;;;;8.10;4.55;;;;;;;14.14;70.85;100817.45;1755777;79;21542;-58
2021/10/29 08:04:18;;;;;;;5.28;4.78;;;;;;;14.20;70.76;100815.36;1752189;81;21037;-57
2021/10/29 08:06:44;;;;;;;5.70;5.15;;;;;;;14.25;70.59;100820.08;1746383;81;21408;-57
2021/10/29 08:09:11;;;;;;;6.30;5.55;;;;;;;14.30;70.42;100828.85;1744552;79;21487;-58
2021/10/29 08:11:39;;;;;;;7.05;4.92;;;;;;;14.37;70.22;100826.77;1747176;79;20938;-58
2021/10/29 08:14:07;;;;;;;6.58;5.97;;;;;;;14.46;70.11;100820.07;1749132;81;20981;-58
2021/10/29 08:16:33;;;;;;;11.00;6.20;;;;;;;14.56;69.94;100821.36;1750378;80;21468;-58
2021/10/29 08:18:59;;;;;;;5.28;4.75;;;;;;;14.66;69.70;100824.92;1755351;80;21184;-58
2021/10/29 08:21:26;;;;;;;6.53;5.70;;;;;;;14.79;69.33;100822.52;1754814;80;21072;-58
2021/10/29 08:23:53;;;;;;;16.27;7.28;;;;;;;14.89;68.72;100822.44;1751119;80;21087;-59
2021/10/29 08:26:21;;;;;;;6.60;5.95;;;;;;;14.99;68.22;100827.81;1749353;80;21354;-58
2021/10/29 08:28:48;;;;;;;6.97;6.35;;;;;;;15.08;67.81;100831.43;1753884;80;21021;-58
2021/10/29 08:31:14;;;;;;;9.48;7.40;;;;;;;15.15;67.35;100827.45;1753641;80;22991;-58
2021/10/29 08:33:41;;;;;;;8.35;7.65;;;;;;;15.24;67.13;100831.53;1751521;80;21708;-58
2021/10/29 08:36:08;;;;;;;10.60;9.60;;;;;;;15.29;66.88;100828.61;1755770;80;21056;-59
2021/10/29 08:38:34;;;;;;;13.65;8.73;;;;;;;15.31;66.58;100827.55;1754838;80;21021;-58
2021/10/29 08:41:01;;;;;;;11.68;8.93;;;;;;;15.31;66.32;100826.20;1753483;79;21343;-59
2021/10/29 08:43:27;;;;;;;10.25;9.23;;;;;;;15.33;65.97;100821.58;1753016;79;22404;-60
2021/10/29 08:45:54;;;;;;;20.23;9.53;;;;;;;15.34;65.71;100825.17;1751017;80;21486;-59
2021/10/29 08:48:20;;;;;;;17.10;11.18;;;;;;;15.35;65.66;100821.51;1749028;80;21820;-60
2021/10/29 08:50:47;;;;;;;15.70;11.20;;;;;;;15.38;65.53;100829.50;1749790;80;21080;-59
2021/10/29 08:53:13;;;;;;;11.88;10.68;;;;;;;15.41;65.27;100830.20;1776141;79;20940;-59
2021/10/29 08:55:40;;;;;;;13.50;9.53;;;;;;;15.43;64.90;100825.59;1777096;80;21035;-59
2021/10/29 08:58:08;;;;;;;21.45;10.32;;;;;;;15.45;64.48;100820.97;1784839;80;20956;-59
2021/10/29 09:00:42;;;;;;;19.55;11.30;;;;;;;15.49;64.30;100819.83;1752200;80;20843;-59
2021/10/29 09:03:12;;;;;;;9.70;8.13;;;;;;;15.54;64.05;100823.72;1752144;81;20974;-59
2021/10/29 09:08:21;;;;;;;11.83;8.30;;;;;;;15.64;63.12;100823.65;1760484;80;22180;-59
2021/10/29 09:32:56;;;;;;;15.00;8.33;;;;;;;15.73;60.47;100825.00;1777576;80;21491;-58
2021/10/29 09:35:17;;;;;;;8.88;5.00;;;;;;;15.69;60.26;100822.91;1781617;80;21083;-58
2021/10/29 09:38:05;;;;;;;10.08;5.35;;;;;;;15.65;59.80;100822.66;1779193;78;20913;-58
2021/10/29 09:40:43;;;;;;;4.67;3.92;;;;;;;15.63;59.34;100818.30;1713176;80;21110;-58
2021/10/29 09:43:17;;;;;;;5.25;3.85;;;;;;;15.57;59.11;100822.18;1734373;81;21037;-58
2021/10/29 09:45:49;;;;;;;10.72;4.92;;;;;;;15.55;59.04;100822.77;1748178;80;21049;-59
2021/10/29 09:48:28;;;;;;;5.67;3.30;;;;;;;15.55;58.98;100820.53;1746326;81;21096;-59
2021/10/29 09:50:53;;;;;;;1.25;0.95;;;;;;;15.53;58.58;100821.92;1748212;81;21689;-58
2021/10/29 09:56:56;;;;;;;5.33;1.82;;;;;;;15.52;57.28;100820.16;1753702;80;21171;-58
2021/10/29 09:58:41;;;;;;;4.55;1.85;;;;;;;15.52;57.18;100818.81;1717994;81;21041;-58
2021/10/29 10:01:07;;;;;;;2.20;1.00;;;;;;;15.52;57.26;100820.16;1743501;81;22344;-58
2021/10/29 10:03:34;;;;;;;2.95;1.30;;;;;;;15.51;56.97;100817.92;1745699;81;21042;-59
2021/10/29 10:06:00;;;;;;;3.77;2.90;;;;;;;15.50;56.96;100820.23;1745925;80;21100;-58
2021/10/29 10:08:27;;;;;;;3.33;2.47;;;;;;;15.52;57.08;100812.02;1747237;80;21097;-59
2021/10/29 10:10:55;;;;;;;4.60;2.72;;;;;;;15.52;57.24;100812.02;1750423;81;21025;-58
2021/10/29 10:13:21;;;;;;;2.50;1.52;;;;;;;15.54;57.26;100816.05;1747255;80;21487;-59
2021/10/29 10:15:50;;;;;;;3.40;1.02;;;;;;;15.55;56.97;100810.55;1745531;81;21515;-59
2021/10/29 10:18:20;;;;;;;2.08;0.90;;;;;;;15.56;56.35;100815.03;1742218;81;21080;-60
2021/10/29 10:20:51;;;;;;;1.70;0.80;;;;;;;15.60;56.07;100814.38;1740831;81;21080;-60
2021/10/29 10:43:14;;;;;;;6.75;3.35;;;;;;;15.73;55.55;100812.31;1765698;80;20974;-59
2021/10/29 10:45:49;;;;;;;4.90;3.00;;;;;;;15.73;55.79;100803.29;1752187;80;21108;-59
2021/10/29 10:48:12;;;;;;;6.50;2.58;;;;;;;15.72;55.98;100807.84;1766826;80;21123;-59
2021/10/29 10:50:43;;;;;;;7.97;3.08;;;;;;;15.72;56.19;100806.95;1763584;80;21073;-59
2021/10/29 10:53:22;;;;;;;3.92;3.12;;;;;;;15.72;56.20;100802.41;1765992;80;21520;-58
2021/10/29 10:56:21;;;;;;;9.93;3.83;;;;;;;15.73;55.95;100812.31;1760610;80;21159;-59
2021/10/29 10:59:08;;;;;;;5.70;2.90;;;;;;;15.74;55.86;100807.73;1762996;80;21113;-59
2021/10/29 11:10:12;;;;;;;3.00;2.50;;;;;;;15.79;56.07;100794.81;1729544;81;21115;-59
2021/10/29 11:12:47;;;;;;;3.00;2.75;;;;;;;15.80;55.75;100796.09;1737474;81;21484;-59
2021/10/29 11:15:20;;;;;;;2.67;2.15;;;;;;;15.84;55.41;100800.86;1735321;81;21441;-58
2021/10/29 11:17:52;;;;;;;5.15;2.35;;;;;;;15.87;55.22;100798.87;1704750;83;20878;-59
2021/10/29 11:20:48;;;;;;;3.58;1.92;;;;;;;15.92;55.10;100789.58;1715299;81;21064;-61
2021/10/29 11:23:24;;;;;;;4.33;2.75;;;;;;;15.96;54.81;100794.78;1673376;83;21516;-59
2021/10/29 11:28:42;;;;;;;4.10;1.70;;;;;;;16.08;54.66;100795.45;1858082;75;27350;-60
2021/10/29 11:31:11;;;;;;;3.02;1.30;;;;;;;16.08;54.23;100799.53;1837196;77;20988;-61
2021/10/29 11:33:41;;;;;;;1.90;1.60;;;;;;;16.11;53.71;100793.06;1839039;77;21133;-61
2021/10/29 11:36:10;;;;;;;1.80;1.45;;;;;;;16.12;53.44;100797.54;1844723;77;21657;-59
2021/10/29 11:38:41;;;;;;;1.85;1.55;;;;;;;16.11;53.24;100799.37;1837904;77;21458;-59
2021/10/29 11:41:10;;;;;;;1.32;1.22;;;;;;;16.09;53.19;100797.22;1843949;77;20886;-59
2021/10/29 11:43:38;;;;;;;1.77;1.30;;;;;;;16.08;53.18;100802.25;1840243;77;20922;-61
2021/10/29 11:46:07;;;;;;;2.22;1.60;;;;;;;16.06;53.18;100798.77;1841186;77;21161;-61
2021/10/29 11:48:35;;;;;;;3.52;1.62;;;;;;;16.06;53.16;100801.95;1841427;77;21365;-59
2021/10/29 11:51:09;;;;;;;3.17;2.08;;;;;;;16.05;53.08;100802.44;1841364;77;20898;-59
2021/10/29 11:53:40;;;;;;;;;;;;;;;16.05;53.03;100799.72;1845308;77;20878;-58
2021/10/29 11:56:18;;;;;;;5.08;1.82;;;;;;;16.06;53.01;100804.67;1841157;77;20132;-57
2021/10/29 11:58:58;;;;;;;5.65;1.52;;;;;;;16.03;52.82;100802.11;1842855;77;21179;-57
2021/10/29 12:09:27;;;;;;;4.67;1.70;;;;;;;15.97;52.97;100799.73;1844265;77;20949;-57
2021/10/29 12:12:01;;;;;;;1.57;1.42;;;;;;;15.93;53.11;100796.30;1840505;77;21096;-57
2021/10/29 12:14:34;;;;;;;2.17;1.70;;;;;;;15.89;53.31;100793.36;1839276;77;20878;-58
2021/10/29 12:17:27;;;;;;;2.98;2.02;;;;;;;15.88;53.65;100795.20;1840324;77;21411;-57
2021/10/29 12:19:52;;;;;;;2.17;1.87;;;;;;;15.84;53.74;100790.88;1841154;77;20851;-58
2021/10/29 12:25:12;;;;;;;;;;;;;;;15.76;53.63;100784.98;1817253;77;21080;-57
2021/10/29 12:27:36;;;;;;;2.05;1.70;;;;;;;15.70;53.62;100785.31;1830110;76;20211;-57
2021/10/29 12:30:08;;;;;;;2.62;2.42;;;;;;;15.64;53.92;100777.51;1815023;77;22505;-57
2021/10/29 12:32:47;;;;;;;3.35;2.35;;;;;;;15.62;54.12;100778.06;1820878;77;21529;-57
2021/10/29 12:52:15;;;;;;;2.05;1.50;;;;;;;15.61;53.75;100770.88;1811018;77;21110;-58
2021/10/29 12:54:41;;;;;;;2.20;1.37;;;;;;;15.59;53.66;100768.72;1809379;77;22143;-58
2021/10/29 13:02:23;;;;;;;3.12;1.50;;;;;;;15.58;53.59;100768.31;1813135;77;21554;-59
2021/10/29 13:04:53;;;;;;;2.92;1.85;;;;;;;15.58;53.71;100762.88;1818671;77;22250;-58
2021/10/29 13:07:27;;;;;;;2.45;2.15;;;;;;;15.58;53.71;100764.23;1812002;77;21065;-58
2021/10/29 13:10:07;;;;;;;2.83;2.00;;;;;;;15.59;53.59;100759.69;1815564;77;21024;-59
2021/10/29 13:12:54;;;;;;;3.12;2.17;;;;;;;15.58;53.51;100761.52;1815387;77;21067;-58
2021/10/29 13:15:14;;;;;;;2.55;1.92;;;;;;;15.57;53.44;100759.77;1812360;77;21041;-59
2021/10/29 13:17:48;;;;;;;3.75;2.10;;;;;;;15.57;53.32;100761.12;1816830;77;21188;-59
2021/10/29 13:20:30;;;;;;;13.95;2.40;;;;;;;15.56;53.25;100762.11;1812064;77;21024;-58
2021/10/29 13:23:21;;;;;;;7.15;2.05;;;;;;;15.58;53.36;100757.94;1813517;77;21039;-59
2021/10/29 13:26:00;;;;;;;3.87;1.55;;;;;;;15.57;53.42;100761.63;1790572;77;21096;-59
2021/10/29 13:36:29;;;;;;;1.92;1.00;;;;;;;15.45;53.67;100766.70;1804633;78;21060;-60
2021/10/29 13:52:56;;;;;;;3.47;1.10;;;;;;;15.25;53.71;100766.84;1802396;78;21073;-59
2021/10/29 13:58:15;;;;;;;;;;;;;;;15.18;54.23;100764.53;1802052;78;21085;-59
2021/10/29 14:03:34;;;;;;;5.70;1.22;;;;;;;15.06;54.25;100772.32;1800342;78;22053;-58
2021/10/29 14:35:23;;;;;;;67.25;10.45;;;;;;;14.17;57.28;100767.23;1798008;78;21103;-58
2021/10/29 14:40:25;;;;;;;78.65;8.58;;;;;;;14.00;57.65;100769.37;1803494;78;21489;-58
2021/10/29 14:42:53;;;;;;;135.30;15.08;;;;;;;13.91;57.77;100766.61;1757728;80;21026;-58
2021/10/29 15:06:26;;;;;;;5.37;1.75;;;;;;;13.13;59.56;100769.19;1772239;79;21077;-58
2021/10/29 15:25:04;;;;;;;20.82;4.47;;;;;;;12.44;60.90;100783.26;1785364;79;22571;-59